Wetterstation Vordersexau
Wetterdaten: Woche 15.06.15 - 21.06.15 (KW25)
Datum Zeit Temp. A. Feuchte A. Luftdruck Regen Wind Richtung Taupunkt Windchill Windben
15.06.2015 00:00 16,2 C 81 % 1009,2 hPa 5,8 l/m 0,0 km/h S-SW 12,9 C 16,2 C 0,0 km/h
15.06.2015 01:00 16,1 C 81 % 1009,4 hPa 2,5 l/m 0,0 km/h S-SW 12,8 C 16,1 C 0,0 km/h
15.06.2015 02:00 15,9 C 81 % 1009,6 hPa 1,2 l/m 0,0 km/h S-SW 12,6 C 15,9 C 0,0 km/h
15.06.2015 03:00 15,9 C 80 % 1009,6 hPa 0,8 l/m 0,0 km/h S-SO 12,5 C 15,9 C 0,0 km/h
15.06.2015 04:00 15,8 C 79 % 1009,5 hPa 0,4 l/m 0,0 km/h S-SO 12,2 C 15,8 C 0,0 km/h
15.06.2015 05:00 15,6 C 78 % 1009,9 hPa 0,0 l/m 0,0 km/h S-SO 11,8 C 15,6 C 0,0 km/h
15.06.2015 06:00 15,6 C 78 % 1010,3 hPa 0,0 l/m 0,0 km/h SO 11,8 C 15,6 C 0,0 km/h
15.06.2015 07:00 16,1 C 76 % 1010,8 hPa 0,4 l/m 0,0 km/h SO 11,9 C 16,1 C 0,0 km/h
15.06.2015 08:00 17,0 C 77 % 1011,4 hPa 0,0 l/m 0,0 km/h SO 12,9 C 17,0 C 0,0 km/h
15.06.2015 09:00 17,9 C 81 % 1011,9 hPa 0,4 l/m 0,0 km/h SO 14,6 C 17,9 C 0,0 km/h
15.06.2015 10:00 18,6 C 83 % 1012,3 hPa 0,0 l/m 0,0 km/h NW 15,7 C 18,6 C 0,0 km/h
15.06.2015 11:00 20,1 C 83 % 1012,8 hPa 0,4 l/m 0,0 km/h W-NW 17,1 C 20,1 C 0,0 km/h
15.06.2015 12:00 21,1 C 81 % 1013,1 hPa 0,0 l/m 0,0 km/h W-SW 17,7 C 21,1 C 0,0 km/h
15.06.2015 13:00 21,9 C 77 % 1013,2 hPa 0,0 l/m 0,0 km/h W-NW 17,7 C 21,9 C 0,0 km/h
15.06.2015 14:00 21,8 C 77 % 1013,2 hPa 0,0 l/m 0,0 km/h N-NO 17,6 C 21,8 C 0,0 km/h
15.06.2015 15:00 20,2 C 80 % 1013,3 hPa 0,0 l/m 0,6 km/h N-NO 16,6 C 20,2 C 0,4 km/h
15.06.2015 16:00 17,8 C 83 % 1013,4 hPa 0,4 l/m 0,0 km/h NO 14,9 C 17,8 C 0,0 km/h
15.06.2015 17:00 18,9 C 84 % 1013,2 hPa 1,2 l/m 0,0 km/h NO 16,1 C 18,9 C 0,0 km/h
15.06.2015 18:00 20,3 C 82 % 1013,3 hPa 0,0 l/m 0,0 km/h NO 17,1 C 20,3 C 0,0 km/h
15.06.2015 19:00 19,4 C 83 % 1013,6 hPa 0,0 l/m 0,0 km/h NO 16,4 C 19,4 C 0,0 km/h
15.06.2015 20:00 18,5 C 84 % 1014,1 hPa 0,0 l/m 0,0 km/h NO 15,7 C 18,5 C 0,0 km/h
15.06.2015 21:00 17,1 C 84 % 1014,9 hPa 0,0 l/m 0,0 km/h SO 14,4 C 17,1 C 0,0 km/h
15.06.2015 22:00 16,3 C 84 % 1015,4 hPa 0,0 l/m 0,0 km/h SO 13,6 C 16,3 C 0,0 km/h
15.06.2015 23:00 16,1 C 83 % 1015,7 hPa 0,0 l/m 0,0 km/h SO 13,2 C 16,1 C 0,0 km/h
16.06.2015 00:00 15,9 C 82 % 1016,1 hPa 0,0 l/m 0,0 km/h SO 12,8 C 15,9 C 0,0 km/h
16.06.2015 01:00 15,6 C 81 % 1015,9 hPa 0,0 l/m 0,0 km/h SO 12,3 C 15,6 C 0,0 km/h
16.06.2015 02:00 15,6 C 80 % 1015,7 hPa 0,0 l/m 0,0 km/h SO 12,2 C 15,6 C 0,0 km/h
16.06.2015 03:00 15,3 C 80 % 1015,8 hPa 0,0 l/m 0,0 km/h SO 11,9 C 15,3 C 0,0 km/h
16.06.2015 04:00 15,1 C 79 % 1015,7 hPa 0,0 l/m 0,0 km/h SO 11,5 C 15,1 C 0,0 km/h
16.06.2015 05:00 15,0 C 78 % 1016,2 hPa 0,0 l/m 0,0 km/h SO 11,2 C 15,0 C 0,0 km/h
16.06.2015 06:00 15,4 C 77 % 1016,2 hPa 0,0 l/m 0,0 km/h SO 11,4 C 15,4 C 0,0 km/h
16.06.2015 07:00 16,6 C 77 % 1016,3 hPa 0,0 l/m 0,0 km/h W-NW 12,5 C 16,6 C 0,0 km/h
16.06.2015 08:00 17,2 C 83 % 1016,6 hPa 0,0 l/m 0,0 km/h W-NW 14,3 C 17,2 C 0,0 km/h
16.06.2015 09:00 18,4 C 83 % 1016,5 hPa 0,0 l/m 1,3 km/h W-NW 15,5 C 18,4 C 0,7 km/h
16.06.2015 10:00 18,3 C 82 % 1016,8 hPa 0,0 l/m 1,9 km/h W-NW 15,2 C 18,3 C 1,1 km/h
16.06.2015 11:00 19,9 C 77 % 1016,9 hPa 0,0 l/m 7,8 km/h W-NW 15,7 C 19,3 C 4,3 km/h
16.06.2015 12:00 19,0 C 77 % 1016,9 hPa 0,0 l/m 3,9 km/h N-NO 14,9 C 19,0 C 2,2 km/h
16.06.2015 13:00 19,0 C 79 % 1016,8 hPa 0,0 l/m 2,6 km/h NO 15,3 C 19,0 C 1,4 km/h
16.06.2015 14:00 20,3 C 73 % 1016,5 hPa 0,0 l/m 0,0 km/h NO 15,3 C 20,3 C 0,0 km/h
16.06.2015 15:00 20,8 C 72 % 1016,3 hPa 0,0 l/m 2,6 km/h N-NO 15,6 C 20,8 C 1,4 km/h
16.06.2015 16:00 19,3 C 72 % 1016,2 hPa 0,0 l/m 1,3 km/h W-NW 14,1 C 19,3 C 0,7 km/h
16.06.2015 17:00 19,4 C 75 % 1016,0 hPa 0,0 l/m 0,0 km/h S-SO 14,8 C 19,4 C 0,0 km/h
16.06.2015 18:00 21,9 C 69 % 1016,1 hPa 0,0 l/m 0,0 km/h O-NO 15,9 C 21,9 C 0,0 km/h
16.06.2015 19:00 19,2 C 73 % 1016,3 hPa 0,0 l/m 0,0 km/h NO 14,2 C 19,2 C 0,0 km/h
16.06.2015 20:00 17,9 C 78 % 1016,8 hPa 0,0 l/m 0,0 km/h NO 14,0 C 17,9 C 0,0 km/h
16.06.2015 21:00 16,4 C 81 % 1017,4 hPa 0,0 l/m 0,0 km/h NO 13,1 C 16,4 C 0,0 km/h
16.06.2015 22:00 14,9 C 84 % 1018,1 hPa 0,0 l/m 0,0 km/h NO 12,2 C 14,9 C 0,0 km/h
16.06.2015 23:00 14,7 C 85 % 1018,6 hPa 0,0 l/m 0,0 km/h O-NO 12,2 C 14,7 C 0,0 km/h
17.06.2015 00:00 14,2 C 85 % 1018,8 hPa 0,0 l/m 0,0 km/h N-NO 11,7 C 14,2 C 0,0 km/h
17.06.2015 01:00 14,4 C 83 % 1018,7 hPa 0,0 l/m 3,9 km/h N-NO 11,5 C 14,4 C 2,2 km/h
17.06.2015 02:00 13,9 C 79 % 1019,0 hPa 0,0 l/m 0,0 km/h N-NO 10,3 C 13,9 C 0,0 km/h
17.06.2015 03:00 12,1 C 83 % 1018,9 hPa 0,0 l/m 0,0 km/h N-NO 9,3 C 12,1 C 0,0 km/h
17.06.2015 04:00 10,9 C 84 % 1019,4 hPa 0,0 l/m 0,0 km/h N 8,3 C 10,9 C 0,0 km/h
17.06.2015 05:00 10,5 C 85 % 1019,9 hPa 0,0 l/m 0,0 km/h N 8,1 C 10,5 C 0,0 km/h
17.06.2015 06:00 11,4 C 84 % 1020,1 hPa 0,0 l/m 0,0 km/h W-NW 8,8 C 11,4 C 0,0 km/h
17.06.2015 07:00 15,8 C 74 % 1020,3 hPa 0,0 l/m 0,0 km/h N-NW 11,2 C 15,8 C 0,0 km/h
17.06.2015 08:00 20,1 C 57 % 1020,6 hPa 0,0 l/m 0,0 km/h W-NW 11,3 C 20,1 C 0,0 km/h
17.06.2015 09:00 21,2 C 56 % 1020,7 hPa 0,0 l/m 13,0 km/h W-NW 12,1 C 19,2 C 7,2 km/h
17.06.2015 10:00 21,1 C 57 % 1020,3 hPa 0,0 l/m 6,5 km/h N-NW 12,2 C 21,1 C 3,6 km/h
17.06.2015 11:00 22,2 C 55 % 1019,9 hPa 0,0 l/m 0,0 km/h W-NW 12,7 C 22,2 C 0,0 km/h
17.06.2015 12:00 21,9 C 55 % 1019,9 hPa 0,0 l/m 8,4 km/h N-NO 12,4 C 21,2 C 4,7 km/h
17.06.2015 13:00 23,5 C 51 % 1019,9 hPa 0,0 l/m 8,4 km/h NW 12,8 C 22,9 C 4,7 km/h
17.06.2015 14:00 24,4 C 49 % 1019,3 hPa 0,0 l/m 6,5 km/h W 13,0 C 24,4 C 3,6 km/h
17.06.2015 15:00 24,3 C 47 % 1019,3 hPa 0,0 l/m 0,0 km/h W-NW 12,3 C 24,3 C 0,0 km/h
17.06.2015 16:00 25,9 C 42 % 1018,9 hPa 0,0 l/m 1,9 km/h NW 12,0 C 25,9 C 1,1 km/h
17.06.2015 17:00 27,8 C 33 % 1018,5 hPa 0,0 l/m 2,6 km/h NO 10,0 C 27,8 C 1,4 km/h
17.06.2015 18:00 25,3 C 36 % 1018,2 hPa 0,0 l/m 5,2 km/h N-NO 9,1 C 25,3 C 2,9 km/h
17.06.2015 19:00 21,6 C 45 % 1018,4 hPa 0,0 l/m 0,0 km/h N-NO 9,2 C 21,6 C 0,0 km/h
17.06.2015 20:00 18,9 C 62 % 1018,5 hPa 0,0 l/m 0,0 km/h O-SO 11,5 C 18,9 C 0,0 km/h
17.06.2015 21:00 15,2 C 71 % 1019,1 hPa 0,0 l/m 0,0 km/h O-SO 10,0 C 15,2 C 0,0 km/h
17.06.2015 22:00 13,5 C 76 % 1019,5 hPa 0,0 l/m 0,0 km/h O 9,4 C 13,5 C 0,0 km/h
17.06.2015 23:00 12,4 C 80 % 1019,4 hPa 0,0 l/m 0,0 km/h SO 9,0 C 12,4 C 0,0 km/h
18.06.2015 00:00 11,3 C 81 % 1019,2 hPa 0,0 l/m 0,0 km/h SO 8,2 C 11,3 C 0,0 km/h
18.06.2015 01:00 10,8 C 83 % 1018,6 hPa 0,0 l/m 0,0 km/h SO 8,0 C 10,8 C 0,0 km/h
18.06.2015 02:00 9,9 C 84 % 1018,6 hPa 0,0 l/m 0,0 km/h O-SO 7,3 C 9,9 C 0,0 km/h
18.06.2015 03:00 9,4 C 84 % 1017,9 hPa 0,0 l/m 0,0 km/h SO 6,8 C 9,4 C 0,0 km/h
18.06.2015 04:00 9,1 C 85 % 1018,2 hPa 0,0 l/m 0,0 km/h O-SO 6,7 C 9,1 C 0,0 km/h
18.06.2015 05:00 9,5 C 84 % 1017,3 hPa 0,0 l/m 0,0 km/h SO 6,9 C 9,5 C 0,0 km/h
18.06.2015 06:00 11,8 C 84 % 1017,1 hPa 0,0 l/m 0,0 km/h S-SO 9,2 C 11,8 C 0,0 km/h
18.06.2015 07:00 14,2 C 84 % 1017,1 hPa 0,0 l/m 0,0 km/h NO 11,5 C 14,2 C 0,0 km/h
18.06.2015 08:00 17,1 C 73 % 1017,0 hPa 0,0 l/m 0,0 km/h O 12,2 C 17,1 C 0,0 km/h
18.06.2015 09:00 16,6 C 77 % 1017,1 hPa 0,0 l/m 0,0 km/h SW 12,5 C 16,6 C 0,0 km/h
18.06.2015 10:00 16,6 C 79 % 1016,9 hPa 0,0 l/m 0,0 km/h SW 12,9 C 16,6 C 0,0 km/h
18.06.2015 11:00 16,8 C 77 % 1016,6 hPa 0,0 l/m 8,4 km/h SW 12,7 C 15,8 C 4,7 km/h
18.06.2015 12:00 17,3 C 75 % 1016,3 hPa 0,0 l/m 6,5 km/h W 12,8 C 17,3 C 3,6 km/h
18.06.2015 13:00 17,5 C 76 % 1016,2 hPa 0,0 l/m 0,0 km/h W-NW 13,2 C 17,5 C 0,0 km/h
18.06.2015 14:00 17,3 C 79 % 1015,9 hPa 0,8 l/m 0,0 km/h S-SW 13,6 C 17,3 C 0,0 km/h
18.06.2015 15:00 17,1 C 82 % 1015,7 hPa 0,4 l/m 0,0 km/h S 14,0 C 17,1 C 0,0 km/h
18.06.2015 16:00 17,1 C 82 % 1015,1 hPa 0,4 l/m 0,0 km/h S-SW 14,0 C 17,1 C 0,0 km/h
18.06.2015 17:00 17,3 C 84 % 1014,4 hPa 0,4 l/m 0,0 km/h W-SW 14,6 C 17,3 C 0,0 km/h
18.06.2015 18:00 18,0 C 83 % 1013,8 hPa 0,0 l/m 0,0 km/h N-NO 15,1 C 18,0 C 0,0 km/h
18.06.2015 19:00 17,3 C 83 % 1013,9 hPa 0,4 l/m 0,0 km/h N-NO 14,4 C 17,3 C 0,0 km/h
18.06.2015 20:00 16,1 C 82 % 1014,3 hPa 1,7 l/m 14,9 km/h SO 13,0 C 12,6 C 8,3 km/h
18.06.2015 21:00 14,9 C 82 % 1014,6 hPa 0,8 l/m 0,0 km/h SO 11,9 C 14,9 C 0,0 km/h
18.06.2015 22:00 14,5 C 82 % 1015,0 hPa 0,0 l/m 0,0 km/h SO 11,5 C 14,5 C 0,0 km/h
18.06.2015 23:00 14,4 C 81 % 1014,6 hPa 0,0 l/m 0,0 km/h O-NO 11,2 C 14,4 C 0,0 km/h
19.06.2015 00:00 13,9 C 81 % 1014,6 hPa 0,0 l/m 0,0 km/h O-NO 10,7 C 13,9 C 0,0 km/h
19.06.2015 01:00 13,1 C 81 % 1014,8 hPa 0,0 l/m 0,0 km/h O 9,9 C 13,1 C 0,0 km/h
19.06.2015 02:00 12,9 C 80 % 1014,7 hPa 0,4 l/m 0,0 km/h O 9,5 C 12,9 C 0,0 km/h
19.06.2015 03:00 12,6 C 79 % 1014,9 hPa 0,0 l/m 0,0 km/h O-NO 9,1 C 12,6 C 0,0 km/h
19.06.2015 04:00 11,0 C 81 % 1015,3 hPa 0,0 l/m 0,0 km/h NO 7,9 C 11,0 C 0,0 km/h
19.06.2015 05:00 10,4 C 79 % 1015,6 hPa 0,0 l/m 0,0 km/h O-NO 6,9 C 10,4 C 0,0 km/h
19.06.2015 06:00 10,3 C 78 % 1016,2 hPa 0,0 l/m 0,0 km/h N-NO 6,6 C 10,3 C 0,0 km/h
19.06.2015 07:00 13,4 C 63 % 1016,4 hPa 0,0 l/m 0,0 km/h NO 6,5 C 13,4 C 0,0 km/h
19.06.2015 08:00 17,2 C 75 % 1016,7 hPa 0,0 l/m 3,9 km/h N-NW 12,7 C 17,2 C 2,2 km/h
19.06.2015 09:00 15,6 C 74 % 1017,1 hPa 0,0 l/m 1,9 km/h W-NW 11,0 C 15,6 C 1,1 km/h
19.06.2015 10:00 18,7 C 65 % 1017,2 hPa 0,0 l/m 0,0 km/h N 12,0 C 18,7 C 0,0 km/h
19.06.2015 11:00 19,3 C 57 % 1017,2 hPa 0,0 l/m 0,0 km/h W-NW 10,6 C 19,3 C 0,0 km/h
19.06.2015 12:00 20,4 C 53 % 1017,2 hPa 0,0 l/m 0,0 km/h S-SO 10,5 C 20,4 C 0,0 km/h
19.06.2015 13:00 20,6 C 52 % 1017,0 hPa 0,0 l/m 0,0 km/h W-NW 10,4 C 20,6 C 0,0 km/h
19.06.2015 14:00 22,3 C 49 % 1016,5 hPa 0,0 l/m 0,0 km/h W-NW 11,1 C 22,3 C 0,0 km/h
19.06.2015 15:00 20,8 C 50 % 1016,4 hPa 0,0 l/m 0,0 km/h N 10,0 C 20,8 C 0,0 km/h
19.06.2015 16:00 21,0 C 50 % 1016,0 hPa 0,0 l/m 0,0 km/h W-NW 10,2 C 21,0 C 0,0 km/h
19.06.2015 17:00 19,4 C 53 % 1016,0 hPa 0,0 l/m 0,0 km/h NW 9,6 C 19,4 C 0,0 km/h
19.06.2015 18:00 18,4 C 57 % 1016,0 hPa 0,0 l/m 0,0 km/h NW 9,7 C 18,4 C 0,0 km/h
19.06.2015 19:00 17,1 C 63 % 1016,2 hPa 0,0 l/m 0,0 km/h NW 10,0 C 17,1 C 0,0 km/h
19.06.2015 20:00 15,6 C 73 % 1016,3 hPa 0,0 l/m 0,0 km/h NW 10,8 C 15,6 C 0,0 km/h
19.06.2015 21:00 14,4 C 78 % 1016,7 hPa 0,0 l/m 0,0 km/h NW 10,6 C 14,4 C 0,0 km/h
19.06.2015 22:00 13,9 C 80 % 1017,1 hPa 0,0 l/m 0,0 km/h NW 10,5 C 13,9 C 0,0 km/h
19.06.2015 23:00 13,4 C 82 % 1017,1 hPa 0,0 l/m 0,0 km/h NW 10,4 C 13,4 C 0,0 km/h
20.06.2015 00:00 13,1 C 83 % 1017,0 hPa 0,0 l/m 0,0 km/h NW 10,3 C 13,1 C 0,0 km/h
20.06.2015 01:00 12,8 C 84 % 1017,1 hPa 0,0 l/m 0,0 km/h NW 10,2 C 12,8 C 0,0 km/h
20.06.2015 02:00 12,5 C 84 % 1017,0 hPa 0,0 l/m 0,0 km/h NW 9,9 C 12,5 C 0,0 km/h
20.06.2015 03:00 12,1 C 84 % 1016,7 hPa 0,0 l/m 0,0 km/h N-NO 9,5 C 12,1 C 0,0 km/h
20.06.2015 04:00 12,1 C 84 % 1016,7 hPa 0,0 l/m 0,0 km/h O 9,5 C 12,1 C 0,0 km/h
20.06.2015 05:00 11,3 C 85 % 1017,2 hPa 1,7 l/m 0,0 km/h O 8,9 C 11,3 C 0,0 km/h
20.06.2015 06:00 11,4 C 84 % 1017,3 hPa 0,4 l/m 0,0 km/h O-NO 8,8 C 11,4 C 0,0 km/h
20.06.2015 07:00 11,9 C 84 % 1017,6 hPa 0,4 l/m 0,0 km/h O-SO 9,3 C 11,9 C 0,0 km/h
20.06.2015 08:00 13,8 C 84 % 1017,7 hPa 0,0 l/m 0,0 km/h SW 11,1 C 13,8 C 0,0 km/h
20.06.2015 09:00 16,9 C 78 % 1018,0 hPa 0,0 l/m 0,0 km/h W-NW 13,0 C 16,9 C 0,0 km/h
20.06.2015 10:00 15,6 C 73 % 1018,4 hPa 0,0 l/m 0,0 km/h W-NW 10,8 C 15,6 C 0,0 km/h
20.06.2015 11:00 16,8 C 70 % 1018,4 hPa 0,0 l/m 7,1 km/h N-NO 11,3 C 16,4 C 4,0 km/h
20.06.2015 12:00 15,2 C 69 % 1018,4 hPa 0,0 l/m 0,0 km/h NO 9,6 C 15,2 C 0,0 km/h
20.06.2015 13:00 15,3 C 72 % 1018,6 hPa 0,0 l/m 1,9 km/h S-SW 10,3 C 15,3 C 1,1 km/h
20.06.2015 14:00 18,9 C 63 % 1018,3 hPa 0,0 l/m 0,0 km/h N-NO 11,7 C 18,9 C 0,0 km/h
20.06.2015 15:00 16,4 C 67 % 1018,6 hPa 0,0 l/m 0,0 km/h W 10,3 C 16,4 C 0,0 km/h
20.06.2015 16:00 16,9 C 71 % 1018,8 hPa 0,0 l/m 0,0 km/h W-NW 11,6 C 16,9 C 0,0 km/h
20.06.2015 17:00 18,2 C 66 % 1018,3 hPa 0,0 l/m 13,6 km/h W-SW 11,7 C 15,5 C 7,6 km/h
20.06.2015 18:00 19,9 C 61 % 1018,0 hPa 0,0 l/m 0,0 km/h NW 12,2 C 19,9 C 0,0 km/h
20.06.2015 19:00 15,8 C 68 % 1018,4 hPa 0,0 l/m 0,0 km/h NW 9,9 C 15,8 C 0,0 km/h
20.06.2015 20:00 15,1 C 73 % 1018,6 hPa 0,0 l/m 0,0 km/h SO 10,3 C 15,1 C 0,0 km/h
20.06.2015 21:00 12,3 C 81 % 1018,9 hPa 0,0 l/m 0,0 km/h SO 9,1 C 12,3 C 0,0 km/h
20.06.2015 22:00 11,3 C 83 % 1019,2 hPa 0,0 l/m 0,0 km/h SO 8,5 C 11,3 C 0,0 km/h
20.06.2015 23:00 10,6 C 84 % 1019,4 hPa 0,0 l/m 0,0 km/h SO 8,0 C 10,6 C 0,0 km/h
21.06.2015 00:00 10,8 C 85 % 1019,1 hPa 0,0 l/m 0,0 km/h SO 8,4 C 10,8 C 0,0 km/h
21.06.2015 01:00 10,7 C 85 % 1018,6 hPa 0,0 l/m 9,7 km/h S-SO 8,3 C 8,5 C 5,4 km/h
21.06.2015 02:00 10,3 C 85 % 1018,4 hPa 0,0 l/m 0,0 km/h S-SO 7,9 C 10,3 C 0,0 km/h
21.06.2015 03:00 10,3 C 85 % 1018,0 hPa 0,0 l/m 0,0 km/h S-SO 7,9 C 10,3 C 0,0 km/h
21.06.2015 04:00 10,5 C 85 % 1017,6 hPa 0,0 l/m 0,0 km/h S-SO 8,1 C 10,5 C 0,0 km/h
21.06.2015 05:00 10,5 C 85 % 1017,9 hPa 0,0 l/m 0,0 km/h S-SO 8,1 C 10,5 C 0,0 km/h
21.06.2015 06:00 10,9 C 84 % 1017,8 hPa 0,4 l/m 0,0 km/h S-SO 8,3 C 10,9 C 0,0 km/h
21.06.2015 07:00 11,8 C 83 % 1017,5 hPa 0,4 l/m 0,0 km/h S-SO 9,0 C 11,8 C 0,0 km/h
21.06.2015 08:00 13,6 C 84 % 1017,5 hPa 0,0 l/m 0,0 km/h W 10,9 C 13,6 C 0,0 km/h
21.06.2015 09:00 14,3 C 84 % 1017,6 hPa 0,0 l/m 0,0 km/h S-SW 11,6 C 14,3 C 0,0 km/h
21.06.2015 10:00 15,3 C 84 % 1017,5 hPa 0,0 l/m 0,0 km/h W 12,6 C 15,3 C 0,0 km/h
21.06.2015 11:00 17,5 C 79 % 1017,1 hPa 0,0 l/m 7,8 km/h W 13,8 C 16,8 C 4,3 km/h
21.06.2015 12:00 19,6 C 73 % 1016,9 hPa 0,0 l/m 0,0 km/h SW 14,6 C 19,6 C 0,0 km/h
21.06.2015 13:00 19,6 C 76 % 1016,6 hPa 0,0 l/m 1,9 km/h S-SO 15,2 C 19,6 C 1,1 km/h
21.06.2015 14:00 22,3 C 69 % 1016,0 hPa 0,0 l/m 7,1 km/h S-SW 16,3 C 22,1 C 4,0 km/h
21.06.2015 15:00 22,8 C 63 % 1015,6 hPa 0,0 l/m 2,6 km/h W 15,4 C 22,8 C 1,4 km/h
21.06.2015 16:00 22,3 C 61 % 1014,8 hPa 0,0 l/m 22,7 km/h W 14,4 C 18,8 C 12,6 km/h
21.06.2015 17:00 21,9 C 63 % 1014,4 hPa 0,0 l/m 8,4 km/h SW 14,5 C 21,2 C 4,7 km/h
21.06.2015 18:00 19,1 C 70 % 1014,2 hPa 0,0 l/m 1,9 km/h W-SW 13,5 C 19,1 C 1,1 km/h
21.06.2015 19:00 18,9 C 74 % 1014,1 hPa 0,0 l/m 11,0 km/h W-NW 14,2 C 17,1 C 6,1 km/h
21.06.2015 20:00 18,1 C 77 % 1013,9 hPa 0,0 l/m 0,0 km/h W-SW 14,0 C 18,1 C 0,0 km/h
21.06.2015 21:00 17,3 C 78 % 1014,1 hPa 0,0 l/m 3,9 km/h W-NW 13,4 C 17,3 C 2,2 km/h
21.06.2015 22:00 17,0 C 79 % 1014,5 hPa 0,0 l/m 4,5 km/h SW 13,3 C 17,0 C 2,5 km/h
21.06.2015 23:00 14,8 C 81 % 1014,4 hPa 0,0 l/m 0,0 km/h N-NO 11,6 C 14,8 C 0,0 km/h
Min-Datum _ 18.06.15 17.06.15 15.06.15 - 15.06.15 - 19.06.15 21.06.15 15.06.15
_ Min-Zeit 04:51 17:51 00:51 - 00:51 - 07:51 01:51 00:51
Minimum _ 9,1 C 33 % 1009,2 hPa - 0,0 km/h - 6,5 C 8,5 C 0,0 km/h
Max-Datum _ 17.06.15 16.06.15 17.06.15 15.06.15 21.06.15 - 15.06.15 17.06.15 21.06.15
_ Max-Zeit 17:51 23:51 09:51 00:51 16:51 - 12:51 17:51 16:51
Maximum _ 27,8 C 85 % 1020,7 hPa 5,8 l/m 22,7 km/h
W
- 17,7 C 27,8 C 12,6 km/h
W
Durchschnitt _ 16,4 C 75 % 1016,4 hPa #22,4 l/m 1,3 km/h SO 11,8 C 16,3 C 0,7 km/h
www.sexauwetter.de